sensor_id;sensor_type;location;lat;lon;timestamp;pressure;altitude;pressure_sealevel;temperature;humidity
10060;BME280;5069;49.306;8.636;2023-12-28T00:01:34;100639.84;;;6.15;100.00
10060;BME280;5069;49.306;8.636;2023-12-28T00:04:36;100638.13;;;6.11;100.00
10060;BME280;5069;49.306;8.636;2023-12-28T00:07:37;100639.00;;;6.13;100.00
10060;BME280;5069;49.306;8.636;2023-12-28T00:10:39;100621.69;;;5.98;100.00
10060;BME280;5069;49.306;8.636;2023-12-28T00:13:40;100617.41;;;5.94;100.00
10060;BME280;5069;49.306;8.636;2023-12-28T00:16:42;100608.66;;;5.95;100.00
10060;BME280;5069;49.306;8.636;2023-12-28T00:19:43;100621.81;;;5.91;100.00
10060;BME280;5069;49.306;8.636;2023-12-28T00:22:45;100634.91;;;5.85;100.00
10060;BME280;5069;49.306;8.636;2023-12-28T00:25:46;100632.31;;;5.83;100.00
10060;BME280;5069;49.306;8.636;2023-12-28T00:28:48;100625.38;;;5.79;100.00
10060;BME280;5069;49.306;8.636;2023-12-28T00:31:49;100634.06;;;5.82;100.00
10060;BME280;5069;49.306;8.636;2023-12-28T00:34:51;100634.97;;;5.78;100.00
10060;BME280;5069;49.306;8.636;2023-12-28T00:37:52;100628.00;;;5.76;100.00
10060;BME280;5069;49.306;8.636;2023-12-28T00:40:54;100638.47;;;5.76;100.00
10060;BME280;5069;49.306;8.636;2023-12-28T00:43:55;100642.84;;;5.77;100.00
10060;BME280;5069;49.306;8.636;2023-12-28T00:46:57;100649.84;;;5.75;100.00
10060;BME280;5069;49.306;8.636;2023-12-28T00:49:58;100634.19;;;5.70;100.00
10060;BME280;5069;49.306;8.636;2023-12-28T00:53:00;100631.56;;;5.70;100.00
10060;BME280;5069;49.306;8.636;2023-12-28T00:56:02;100633.34;;;5.68;100.00
10060;BME280;5069;49.306;8.636;2023-12-28T00:59:04;100640.31;;;5.68;100.00
10060;BME280;5069;49.306;8.636;2023-12-28T01:02:05;100624.69;;;5.60;100.00
10060;BME280;5069;49.306;8.636;2023-12-28T01:05:07;100634.28;;;5.60;100.00
10060;BME280;5069;49.306;8.636;2023-12-28T01:08:09;100629.09;;;5.57;100.00
10060;BME280;5069;49.306;8.636;2023-12-28T01:11:11;100628.19;;;5.62;100.00
10060;BME280;5069;49.306;8.636;2023-12-28T01:14:14;100619.41;;;5.69;100.00
10060;BME280;5069;49.306;8.636;2023-12-28T01:17:16;100617.66;;;5.68;100.00
10060;BME280;5069;49.306;8.636;2023-12-28T01:20:18;100621.13;;;5.69;100.00
10060;BME280;5069;49.306;8.636;2023-12-28T01:23:19;100615.00;;;5.70;100.00
10060;BME280;5069;49.306;8.636;2023-12-28T01:26:20;100629.03;;;5.63;100.00
10060;BME280;5069;49.306;8.636;2023-12-28T01:29:22;100634.28;;;5.60;100.00
10060;BME280;5069;49.306;8.636;2023-12-28T01:32:23;100636.06;;;5.58;100.00
10060;BME280;5069;49.306;8.636;2023-12-28T01:35:26;100638.69;;;5.56;100.00
10060;BME280;5069;49.306;8.636;2023-12-28T01:38:28;100652.59;;;5.60;100.00
10060;BME280;5069;49.306;8.636;2023-12-28T01:41:29;100652.59;;;5.61;100.00
10060;BME280;5069;49.306;8.636;2023-12-28T01:44:31;100662.28;;;5.52;100.00
10060;BME280;5069;49.306;8.636;2023-12-28T01:47:33;100658.88;;;5.40;100.00
10060;BME280;5069;49.306;8.636;2023-12-28T01:50:35;100658.88;;;5.37;100.00
10060;BME280;5069;49.306;8.636;2023-12-28T01:53:37;100659.75;;;5.36;100.00
10060;BME280;5069;49.306;8.636;2023-12-28T01:56:39;100661.56;;;5.31;100.00
10060;BME280;5069;49.306;8.636;2023-12-28T01:59:41;100653.75;;;5.28;100.00
10060;BME280;5069;49.306;8.636;2023-12-28T02:02:43;100665.88;;;5.35;100.00
10060;BME280;5069;49.306;8.636;2023-12-28T02:05:46;100664.06;;;5.45;100.00
10060;BME280;5069;49.306;8.636;2023-12-28T02:08:47;100663.91;;;5.60;100.00
10060;BME280;5069;49.306;8.636;2023-12-28T02:11:49;100653.34;;;5.74;100.00
10060;BME280;5069;49.306;8.636;2023-12-28T02:14:51;100668.91;;;5.86;100.00
10060;BME280;5069;49.306;8.636;2023-12-28T02:18:02;100663.66;;;5.92;100.00
10060;BME280;5069;49.306;8.636;2023-12-28T02:21:08;100661.75;;;6.06;100.00
10060;BME280;5069;49.306;8.636;2023-12-28T02:24:09;100670.41;;;6.11;100.00
10060;BME280;5069;49.306;8.636;2023-12-28T02:27:12;100677.31;;;6.18;100.00
10060;BME280;5069;49.306;8.636;2023-12-28T02:30:15;100665.97;;;6.19;100.00
10060;BME280;5069;49.306;8.636;2023-12-28T02:33:35;100678.94;;;6.29;100.00
10060;BME280;5069;49.306;8.636;2023-12-28T02:36:41;100683.28;;;6.30;100.00
10060;BME280;5069;49.306;8.636;2023-12-28T02:39:47;100671.88;;;6.35;100.00
10060;BME280;5069;49.306;8.636;2023-12-28T02:42:50;100672.69;;;6.42;100.00
10060;BME280;5069;49.306;8.636;2023-12-28T02:45:52;100678.72;;;6.47;100.00
10060;BME280;5069;49.306;8.636;2023-12-28T02:48:54;100673.41;;;6.53;100.00
10060;BME280;5069;49.306;8.636;2023-12-28T02:51:59;100671.69;;;6.52;100.00
10060;BME280;5069;49.306;8.636;2023-12-28T02:55:00;100663.72;;;6.59;100.00
10060;BME280;5069;49.306;8.636;2023-12-28T02:58:03;100659.38;;;6.60;100.00
10060;BME280;5069;49.306;8.636;2023-12-28T03:01:05;100662.81;;;6.62;100.00
10060;BME280;5069;49.306;8.636;2023-12-28T03:04:06;100671.47;;;6.67;100.00
10060;BME280;5069;49.306;8.636;2023-12-28T03:07:10;100670.47;;;6.77;100.00
10060;BME280;5069;49.306;8.636;2023-12-28T03:10:12;100674.69;;;6.87;100.00
10060;BME280;5069;49.306;8.636;2023-12-28T03:13:15;100673.78;;;6.90;100.00
10060;BME280;5069;49.306;8.636;2023-12-28T03:16:16;100665.09;;;6.88;100.00
10060;BME280;5069;49.306;8.636;2023-12-28T03:19:19;100665.03;;;6.91;100.00
10060;BME280;5069;49.306;8.636;2023-12-28T03:22:20;100663.25;;;6.94;100.00
10060;BME280;5069;49.306;8.636;2023-12-28T03:25:22;100669.38;;;6.93;100.00
10060;BME280;5069;49.306;8.636;2023-12-28T03:28:24;100670.09;;;7.03;100.00
10060;BME280;5069;49.306;8.636;2023-12-28T03:31:25;100668.41;;;6.99;100.00
10060;BME280;5069;49.306;8.636;2023-12-28T03:34:27;100670.13;;;7.01;100.00
10060;BME280;5069;49.306;8.636;2023-12-28T03:37:31;100671.03;;;7.00;100.00
10060;BME280;5069;49.306;8.636;2023-12-28T03:40:33;100675.34;;;7.01;100.00
10060;BME280;5069;49.306;8.636;2023-12-28T03:43:34;100669.91;;;7.15;100.00
10060;BME280;5069;49.306;8.636;2023-12-28T03:46:36;100659.25;;;7.27;100.00
10060;BME280;5069;49.306;8.636;2023-12-28T03:49:38;100655.28;;;7.54;100.00
10060;BME280;5069;49.306;8.636;2023-12-28T03:52:40;100650.63;;;7.71;100.00
10060;BME280;5069;49.306;8.636;2023-12-28T03:55:42;100667.09;;;7.79;100.00
10060;BME280;5069;49.306;8.636;2023-12-28T03:58:43;100649.53;;;7.83;100.00
10060;BME280;5069;49.306;8.636;2023-12-28T04:01:45;100649.91;;;8.09;100.00
10060;BME280;5069;49.306;8.636;2023-12-28T04:04:46;100661.13;;;8.17;100.00
10060;BME280;5069;49.306;8.636;2023-12-28T04:07:48;100661.03;;;8.22;100.00
10060;BME280;5069;49.306;8.636;2023-12-28T04:10:49;100652.16;;;8.29;100.00
10060;BME280;5069;49.306;8.636;2023-12-28T04:13:51;100642.47;;;8.33;100.00
10060;BME280;5069;49.306;8.636;2023-12-28T04:16:52;100641.97;;;8.55;100.00
10060;BME280;5069;49.306;8.636;2023-12-28T04:19:55;100647.06;;;8.64;100.00
10060;BME280;5069;49.306;8.636;2023-12-28T04:22:57;100655.56;;;8.76;100.00
10060;BME280;5069;49.306;8.636;2023-12-28T04:25:58;100658.97;;;8.81;100.00
10060;BME280;5069;49.306;8.636;2023-12-28T04:29:00;100670.88;;;8.95;100.00
10060;BME280;5069;49.306;8.636;2023-12-28T04:32:02;100673.97;;;9.14;100.00
10060;BME280;5069;49.306;8.636;2023-12-28T04:35:03;100674.84;;;9.15;100.00
10060;BME280;5069;49.306;8.636;2023-12-28T04:38:08;100674.56;;;9.27;100.00
10060;BME280;5069;49.306;8.636;2023-12-28T04:41:09;100669.16;;;9.33;100.00
10060;BME280;5069;49.306;8.636;2023-12-28T04:44:11;100667.03;;;9.47;100.00
10060;BME280;5069;49.306;8.636;2023-12-28T04:47:12;100686.19;;;9.52;100.00
10060;BME280;5069;49.306;8.636;2023-12-28T04:50:14;100699.25;;;9.57;100.00
10060;BME280;5069;49.306;8.636;2023-12-28T04:53:16;100699.19;;;9.60;100.00
10060;BME280;5069;49.306;8.636;2023-12-28T04:56:18;100707.94;;;9.60;100.00
10060;BME280;5069;49.306;8.636;2023-12-28T04:59:20;100704.53;;;9.57;100.00
10060;BME280;5069;49.306;8.636;2023-12-28T05:02:22;100721.53;;;9.42;100.00
10060;BME280;5069;49.306;8.636;2023-12-28T05:05:23;100726.66;;;9.11;100.00
10060;BME280;5069;49.306;8.636;2023-12-28T05:08:25;100734.03;;;8.94;100.00
10060;BME280;5069;49.306;8.636;2023-12-28T05:11:26;100726.94;;;8.97;100.00
10060;BME280;5069;49.306;8.636;2023-12-28T05:14:28;100726.31;;;8.86;100.00
10060;BME280;5069;49.306;8.636;2023-12-28T05:17:30;100739.34;;;8.91;100.00
10060;BME280;5069;49.306;8.636;2023-12-28T05:20:31;100731.41;;;8.94;100.00
10060;BME280;5069;49.306;8.636;2023-12-28T05:23:33;100742.81;;;8.93;100.00
10060;BME280;5069;49.306;8.636;2023-12-28T05:26:34;100758.66;;;8.90;100.00
10060;BME280;5069;49.306;8.636;2023-12-28T05:29:36;100751.72;;;8.86;100.00
10060;BME280;5069;49.306;8.636;2023-12-28T05:32:37;100749.13;;;8.84;100.00
10060;BME280;5069;49.306;8.636;2023-12-28T05:35:39;100746.59;;;8.80;100.00
10060;BME280;5069;49.306;8.636;2023-12-28T05:38:40;100752.69;;;8.82;100.00
10060;BME280;5069;49.306;8.636;2023-12-28T05:41:42;100755.25;;;8.85;100.00
10060;BME280;5069;49.306;8.636;2023-12-28T05:44:43;100758.03;;;8.77;100.00
10060;BME280;5069;49.306;8.636;2023-12-28T05:47:45;100758.13;;;8.73;100.00
10060;BME280;5069;49.306;8.636;2023-12-28T05:50:47;100760.84;;;8.69;100.00
10060;BME280;5069;49.306;8.636;2023-12-28T05:53:48;100770.44;;;8.70;100.00
10060;BME280;5069;49.306;8.636;2023-12-28T05:56:49;100764.28;;;8.71;100.00
10060;BME280;5069;49.306;8.636;2023-12-28T05:59:51;100773.09;;;8.70;100.00
10060;BME280;5069;49.306;8.636;2023-12-28T06:02:52;100766.94;;;8.70;100.00
10060;BME280;5069;49.306;8.636;2023-12-28T06:05:54;100765.25;;;8.66;100.00
10060;BME280;5069;49.306;8.636;2023-12-28T06:08:57;100779.22;;;8.69;100.00
10060;BME280;5069;49.306;8.636;2023-12-28T06:11:58;100786.16;;;8.72;100.00
10060;BME280;5069;49.306;8.636;2023-12-28T06:15:00;100780.19;;;8.65;100.00
10060;BME280;5069;49.306;8.636;2023-12-28T06:18:02;100783.72;;;8.63;100.00
10060;BME280;5069;49.306;8.636;2023-12-28T06:21:08;100775.75;;;8.67;100.00
10060;BME280;5069;49.306;8.636;2023-12-28T06:24:09;100782.75;;;8.67;100.00
10060;BME280;5069;49.306;8.636;2023-12-28T06:27:11;100788.66;;;8.80;100.00
10060;BME280;5069;49.306;8.636;2023-12-28T06:30:13;100800.94;;;8.79;100.00
10060;BME280;5069;49.306;8.636;2023-12-28T06:33:14;100803.63;;;8.76;100.00
10060;BME280;5069;49.306;8.636;2023-12-28T06:36:17;100817.66;;;8.75;100.00
10060;BME280;5069;49.306;8.636;2023-12-28T06:39:20;100816.78;;;8.76;100.00
10060;BME280;5069;49.306;8.636;2023-12-28T06:42:21;100823.78;;;8.76;100.00
10060;BME280;5069;49.306;8.636;2023-12-28T06:45:23;100820.28;;;8.77;100.00
10060;BME280;5069;49.306;8.636;2023-12-28T06:48:29;100831.72;;;8.73;100.00
10060;BME280;5069;49.306;8.636;2023-12-28T06:51:30;100831.72;;;8.73;100.00
10060;BME280;5069;49.306;8.636;2023-12-28T06:54:32;100822.06;;;8.73;100.00
10060;BME280;5069;49.306;8.636;2023-12-28T06:57:34;100818.66;;;8.69;100.00
10060;BME280;5069;49.306;8.636;2023-12-28T07:00:35;100821.28;;;8.68;100.00
10060;BME280;5069;49.306;8.636;2023-12-28T07:03:37;100819.63;;;8.64;100.00
10060;BME280;5069;49.306;8.636;2023-12-28T07:06:39;100818.63;;;8.71;100.00
10060;BME280;5069;49.306;8.636;2023-12-28T07:09:41;100820.31;;;8.74;100.00
10060;BME280;5069;49.306;8.636;2023-12-28T07:12:42;100821.88;;;8.84;100.00
10060;BME280;5069;49.306;8.636;2023-12-28T07:15:44;100814.81;;;8.86;100.00
10060;BME280;5069;49.306;8.636;2023-12-28T07:18:45;100813.84;;;8.91;100.00
10060;BME280;5069;49.306;8.636;2023-12-28T07:21:47;100819.75;;;9.01;100.00
10060;BME280;5069;49.306;8.636;2023-12-28T07:24:48;100816.06;;;9.11;100.00
10060;BME280;5069;49.306;8.636;2023-12-28T07:27:50;100826.31;;;9.23;100.00
10060;BME280;5069;49.306;8.636;2023-12-28T07:30:53;100836.91;;;9.20;100.00
10060;BME280;5069;49.306;8.636;2023-12-28T07:33:55;100835.16;;;9.21;100.00
10060;BME280;5069;49.306;8.636;2023-12-28T07:36:57;100835.28;;;9.13;100.00
10060;BME280;5069;49.306;8.636;2023-12-28T07:39:58;100840.56;;;9.13;100.00
10060;BME280;5069;49.306;8.636;2023-12-28T07:43:00;100858.16;;;9.11;100.00
10060;BME280;5069;49.306;8.636;2023-12-28T07:46:03;100867.81;;;9.09;100.00
10060;BME280;5069;49.306;8.636;2023-12-28T07:49:04;100860.81;;;9.09;100.00
10060;BME280;5069;49.306;8.636;2023-12-28T07:52:06;100860.78;;;9.11;100.00
10060;BME280;5069;49.306;8.636;2023-12-28T07:55:08;100852.91;;;9.09;100.00
10060;BME280;5069;49.306;8.636;2023-12-28T07:58:10;100850.31;;;9.08;100.00
10060;BME280;5069;49.306;8.636;2023-12-28T08:01:11;100854.78;;;9.03;100.00
10060;BME280;5069;49.306;8.636;2023-12-28T08:04:13;100866.97;;;9.07;100.00
10060;BME280;5069;49.306;8.636;2023-12-28T08:07:14;100867.84;;;9.07;100.00
10060;BME280;5069;49.306;8.636;2023-12-28T08:10:16;100873.94;;;9.09;100.00
10060;BME280;5069;49.306;8.636;2023-12-28T08:13:17;100877.50;;;9.07;100.00
10060;BME280;5069;49.306;8.636;2023-12-28T08:16:22;100868.72;;;9.08;100.00
10060;BME280;5069;49.306;8.636;2023-12-28T08:19:23;100878.38;;;9.06;100.00
10060;BME280;5069;49.306;8.636;2023-12-28T08:22:25;100881.00;;;9.06;100.00
10060;BME280;5069;49.306;8.636;2023-12-28T08:25:26;100878.50;;;9.00;100.00
10060;BME280;5069;49.306;8.636;2023-12-28T08:28:28;100872.34;;;9.02;100.00
10060;BME280;5069;49.306;8.636;2023-12-28T08:31:30;100877.56;;;9.04;100.00
10060;BME280;5069;49.306;8.636;2023-12-28T08:34:32;100881.97;;;9.03;100.00
10060;BME280;5069;49.306;8.636;2023-12-28T08:37:33;100884.56;;;9.05;100.00
10060;BME280;5069;49.306;8.636;2023-12-28T08:40:35;100881.88;;;9.06;100.00
10060;BME280;5069;49.306;8.636;2023-12-28T08:43:36;100882.72;;;9.10;100.00
10060;BME280;5069;49.306;8.636;2023-12-28T08:46:38;100875.63;;;9.13;100.00
10060;BME280;5069;49.306;8.636;2023-12-28T08:49:39;100886.03;;;9.18;100.00
10060;BME280;5069;49.306;8.636;2023-12-28T08:52:42;100873.84;;;9.14;100.00
10060;BME280;5069;49.306;8.636;2023-12-28T08:55:43;100881.75;;;9.14;100.00
10060;BME280;5069;49.306;8.636;2023-12-28T08:58:46;100887.16;;;9.06;100.00
10060;BME280;5069;49.306;8.636;2023-12-28T09:01:53;100892.56;;;8.99;100.00
10060;BME280;5069;49.306;8.636;2023-12-28T09:04:55;100895.25;;;8.96;100.00
10060;BME280;5069;49.306;8.636;2023-12-28T09:07:56;100904.03;;;8.95;100.00
10060;BME280;5069;49.306;8.636;2023-12-28T09:10:58;100905.78;;;8.94;100.00
10060;BME280;5069;49.306;8.636;2023-12-28T09:14:00;100909.34;;;8.92;100.00
10060;BME280;5069;49.306;8.636;2023-12-28T09:17:01;100912.00;;;8.90;100.00
10060;BME280;5069;49.306;8.636;2023-12-28T09:20:03;100903.31;;;8.87;100.00
10060;BME280;5069;49.306;8.636;2023-12-28T09:23:05;100903.25;;;8.90;100.00
10060;BME280;5069;49.306;8.636;2023-12-28T09:26:07;100914.63;;;8.92;100.00
10060;BME280;5069;49.306;8.636;2023-12-28T09:29:08;100918.13;;;8.91;100.00
10060;BME280;5069;49.306;8.636;2023-12-28T09:32:10;100919.97;;;8.87;100.00
10060;BME280;5069;49.306;8.636;2023-12-28T09:35:11;100917.25;;;8.92;100.00
10060;BME280;5069;49.306;8.636;2023-12-28T09:38:13;100916.28;;;8.96;100.00
10060;BME280;5069;49.306;8.636;2023-12-28T09:41:15;100925.81;;;9.01;100.00
10060;BME280;5069;49.306;8.636;2023-12-28T09:44:17;100918.88;;;8.99;100.00
10060;BME280;5069;49.306;8.636;2023-12-28T09:47:20;100919.69;;;9.01;100.00
10060;BME280;5069;49.306;8.636;2023-12-28T09:50:21;100917.09;;;8.99;100.00
10060;BME280;5069;49.306;8.636;2023-12-28T09:53:25;100912.69;;;9.00;100.00
10060;BME280;5069;49.306;8.636;2023-12-28T09:56:27;100910.03;;;9.01;100.00
10060;BME280;5069;49.306;8.636;2023-12-28T09:59:32;100914.41;;;9.02;100.00
10060;BME280;5069;49.306;8.636;2023-12-28T10:02:34;100905.72;;;8.99;100.00
10060;BME280;5069;49.306;8.636;2023-12-28T10:05:37;100901.34;;;8.99;100.00
10060;BME280;5069;49.306;8.636;2023-12-28T10:08:48;100902.16;;;9.00;100.00
10060;BME280;5069;49.306;8.636;2023-12-28T10:11:50;100905.75;;;8.96;100.00
10060;BME280;5069;49.306;8.636;2023-12-28T10:14:51;100891.72;;;8.97;100.00
10060;BME280;5069;49.306;8.636;2023-12-28T10:17:53;100889.94;;;8.99;100.00
10060;BME280;5069;49.306;8.636;2023-12-28T10:20:54;100883.72;;;9.03;100.00
10060;BME280;5069;49.306;8.636;2023-12-28T10:23:56;100886.34;;;9.03;100.00
10060;BME280;5069;49.306;8.636;2023-12-28T10:26:57;100874.06;;;9.05;100.00
10060;BME280;5069;49.306;8.636;2023-12-28T10:29:59;100870.34;;;9.15;100.00
10060;BME280;5069;49.306;8.636;2023-12-28T10:33:00;100865.19;;;9.09;100.00
10060;BME280;5069;49.306;8.636;2023-12-28T10:36:08;100859.81;;;9.15;100.00
10060;BME280;5069;49.306;8.636;2023-12-28T10:39:11;100860.72;;;9.12;100.00
10060;BME280;5069;49.306;8.636;2023-12-28T10:42:32;100859.84;;;9.12;100.00
10060;BME280;5069;49.306;8.636;2023-12-28T10:45:34;100860.84;;;9.06;100.00
10060;BME280;5069;49.306;8.636;2023-12-28T10:48:38;100861.72;;;9.07;100.00
10060;BME280;5069;49.306;8.636;2023-12-28T10:51:42;100861.72;;;9.07;100.00
10060;BME280;5069;49.306;8.636;2023-12-28T10:54:49;100859.06;;;9.08;100.00
10060;BME280;5069;49.306;8.636;2023-12-28T10:58:18;100851.06;;;9.13;100.00
10060;BME280;5069;49.306;8.636;2023-12-28T11:01:28;100856.34;;;9.13;100.00
10060;BME280;5069;49.306;8.636;2023-12-28T11:04:48;100850.16;;;9.16;100.00
10060;BME280;5069;49.306;8.636;2023-12-28T11:07:50;100851.84;;;9.18;100.00
10060;BME280;5069;49.306;8.636;2023-12-28T11:10:59;100853.59;;;9.19;100.00
10060;BME280;5069;49.306;8.636;2023-12-28T11:14:08;100858.75;;;9.24;100.00
10060;BME280;5069;49.306;8.636;2023-12-28T11:17:10;100856.84;;;9.32;100.00
10060;BME280;5069;49.306;8.636;2023-12-28T11:20:16;100852.31;;;9.38;100.00
10060;BME280;5069;49.306;8.636;2023-12-28T11:23:18;100847.66;;;9.51;100.00
10060;BME280;5069;49.306;8.636;2023-12-28T11:26:21;100843.09;;;9.58;100.00
10060;BME280;5069;49.306;8.636;2023-12-28T11:29:24;100835.97;;;9.63;100.00
10060;BME280;5069;49.306;8.636;2023-12-28T11:32:26;100836.03;;;9.60;100.00
10060;BME280;5069;49.306;8.636;2023-12-28T11:35:38;100828.16;;;9.58;100.00
10060;BME280;5069;49.306;8.636;2023-12-28T11:38:41;100831.69;;;9.57;100.00
10060;BME280;5069;49.306;8.636;2023-12-28T11:41:43;100836.19;;;9.53;100.00
10060;BME280;5069;49.306;8.636;2023-12-28T11:44:44;100839.97;;;9.40;100.00
10060;BME280;5069;49.306;8.636;2023-12-28T11:47:46;100832.75;;;9.50;100.00
10060;BME280;5069;49.306;8.636;2023-12-28T11:50:48;100822.31;;;9.45;100.00
10060;BME280;5069;49.306;8.636;2023-12-28T11:53:49;100826.69;;;9.46;100.00
10060;BME280;5069;49.306;8.636;2023-12-28T11:56:51;100810.94;;;9.45;100.00
10060;BME280;5069;49.306;8.636;2023-12-28T11:59:56;100821.53;;;9.42;100.00
10060;BME280;5069;49.306;8.636;2023-12-28T12:02:58;100816.47;;;9.33;100.00
10060;BME280;5069;49.306;8.636;2023-12-28T12:06:00;100821.97;;;9.22;100.00
10060;BME280;5069;49.306;8.636;2023-12-28T12:09:01;100827.91;;;9.30;100.00
10060;BME280;5069;49.306;8.636;2023-12-28T12:12:04;100825.38;;;9.27;100.00
10060;BME280;5069;49.306;8.636;2023-12-28T12:15:06;100819.25;;;9.25;100.00
10060;BME280;5069;49.306;8.636;2023-12-28T12:18:09;100818.47;;;9.22;100.00
10060;BME280;5069;49.306;8.636;2023-12-28T12:21:12;100821.97;;;9.22;100.00
10060;BME280;5069;49.306;8.636;2023-12-28T12:24:13;100814.13;;;9.19;100.00
10060;BME280;5069;49.306;8.636;2023-12-28T12:27:15;100822.78;;;9.24;100.00
10060;BME280;5069;49.306;8.636;2023-12-28T12:30:16;100816.75;;;9.19;100.00
10060;BME280;5069;49.306;8.636;2023-12-28T12:33:18;100817.59;;;9.21;100.00
10060;BME280;5069;49.306;8.636;2023-12-28T12:36:20;100814.06;;;9.22;100.00
10060;BME280;5069;49.306;8.636;2023-12-28T12:39:23;100807.13;;;9.18;100.00
10060;BME280;5069;49.306;8.636;2023-12-28T12:42:25;100811.47;;;9.21;100.00
10060;BME280;5069;49.306;8.636;2023-12-28T12:45:27;100806.31;;;9.16;100.00
10060;BME280;5069;49.306;8.636;2023-12-28T12:48:28;100804.56;;;9.15;100.00
10060;BME280;5069;49.306;8.636;2023-12-28T12:51:30;100805.47;;;9.14;100.00
10060;BME280;5069;49.306;8.636;2023-12-28T12:54:32;100809.88;;;9.12;100.00
10060;BME280;5069;49.306;8.636;2023-12-28T12:57:34;100803.72;;;9.13;100.00
10060;BME280;5069;49.306;8.636;2023-12-28T13:00:35;100809.00;;;9.13;100.00
10060;BME280;5069;49.306;8.636;2023-12-28T13:03:37;100808.88;;;9.18;100.00
10060;BME280;5069;49.306;8.636;2023-12-28T13:06:39;100808.69;;;9.28;100.00
10060;BME280;5069;49.306;8.636;2023-12-28T13:09:41;100810.59;;;9.20;100.00
10060;BME280;5069;49.306;8.636;2023-12-28T13:12:42;100814.97;;;9.21;100.00
10060;BME280;5069;49.306;8.636;2023-12-28T13:15:44;100811.56;;;9.16;100.00
10060;BME280;5069;49.306;8.636;2023-12-28T13:18:46;100810.66;;;9.17;100.00
10060;BME280;5069;49.306;8.636;2023-12-28T13:21:47;100808.94;;;9.16;100.00
10060;BME280;5069;49.306;8.636;2023-12-28T13:24:49;100809.72;;;9.20;100.00
10060;BME280;5069;49.306;8.636;2023-12-28T13:27:50;100817.63;;;9.20;100.00
10060;BME280;5069;49.306;8.636;2023-12-28T13:30:52;100819.34;;;9.22;100.00
10060;BME280;5069;49.306;8.636;2023-12-28T13:33:57;100807.00;;;9.24;100.00
10060;BME280;5069;49.306;8.636;2023-12-28T13:36:59;100800.88;;;9.24;100.00
10060;BME280;5069;49.306;8.636;2023-12-28T13:40:03;100802.47;;;9.31;100.00
10060;BME280;5069;49.306;8.636;2023-12-28T13:43:04;100799.88;;;9.29;100.00
10060;BME280;5069;49.306;8.636;2023-12-28T13:46:06;100790.28;;;9.27;100.00
10060;BME280;5069;49.306;8.636;2023-12-28T13:49:08;100791.09;;;9.30;100.00
10060;BME280;5069;49.306;8.636;2023-12-28T13:52:10;100786.63;;;9.34;100.00
10060;BME280;5069;49.306;8.636;2023-12-28T13:55:11;100791.16;;;9.27;100.00
10060;BME280;5069;49.306;8.636;2023-12-28T13:58:13;100796.34;;;9.30;100.00
10060;BME280;5069;49.306;8.636;2023-12-28T14:01:15;100791.22;;;9.24;100.00
10060;BME280;5069;49.306;8.636;2023-12-28T14:04:16;100787.78;;;9.21;100.00
10060;BME280;5069;49.306;8.636;2023-12-28T14:07:18;100786.91;;;9.22;100.00
10060;BME280;5069;49.306;8.636;2023-12-28T14:10:19;100779.75;;;9.28;100.00
10060;BME280;5069;49.306;8.636;2023-12-28T14:13:21;100786.69;;;9.31;100.00
10060;BME280;5069;49.306;8.636;2023-12-28T14:16:23;100791.84;;;9.35;100.00
10060;BME280;5069;49.306;8.636;2023-12-28T14:19:25;100789.16;;;9.38;100.00
10060;BME280;5069;49.306;8.636;2023-12-28T14:22:26;100803.22;;;9.37;100.00
10060;BME280;5069;49.306;8.636;2023-12-28T14:25:28;100793.56;;;9.38;100.00
10060;BME280;5069;49.306;8.636;2023-12-28T14:28:30;100793.53;;;9.39;100.00
10060;BME280;5069;49.306;8.636;2023-12-28T14:31:34;100791.53;;;9.49;100.00
10060;BME280;5069;49.306;8.636;2023-12-28T14:34:35;100787.28;;;9.43;100.00
10060;BME280;5069;49.306;8.636;2023-12-28T14:37:37;100797.88;;;9.40;100.00
10060;BME280;5069;49.306;8.636;2023-12-28T14:40:39;100795.34;;;9.36;100.00
10060;BME280;5069;49.306;8.636;2023-12-28T14:43:40;100799.72;;;9.37;100.00
10060;BME280;5069;49.306;8.636;2023-12-28T14:46:42;100796.19;;;9.38;100.00
10060;BME280;5069;49.306;8.636;2023-12-28T14:49:43;100790.94;;;9.36;100.00
10060;BME280;5069;49.306;8.636;2023-12-28T14:52:46;100788.34;;;9.35;100.00
10060;BME280;5069;49.306;8.636;2023-12-28T14:55:47;100794.47;;;9.35;100.00
10060;BME280;5069;49.306;8.636;2023-12-28T14:58:49;100798.09;;;9.31;100.00
10060;BME280;5069;49.306;8.636;2023-12-28T15:01:50;100785.78;;;9.32;100.00
10060;BME280;5069;49.306;8.636;2023-12-28T15:04:53;100787.56;;;9.31;100.00
10060;BME280;5069;49.306;8.636;2023-12-28T15:07:55;100781.41;;;9.32;100.00
10060;BME280;5069;49.306;8.636;2023-12-28T15:10:57;100778.69;;;9.35;100.00
10060;BME280;5069;49.306;8.636;2023-12-28T15:13:58;100773.50;;;9.32;100.00
10060;BME280;5069;49.306;8.636;2023-12-28T15:17:00;100777.91;;;9.32;100.00
10060;BME280;5069;49.306;8.636;2023-12-28T15:20:02;100783.94;;;9.35;100.00
10060;BME280;5069;49.306;8.636;2023-12-28T15:23:04;100787.44;;;9.37;100.00
10060;BME280;5069;49.306;8.636;2023-12-28T15:26:06;100784.78;;;9.39;100.00
10060;BME280;5069;49.306;8.636;2023-12-28T15:29:09;100769.94;;;9.35;100.00
10060;BME280;5069;49.306;8.636;2023-12-28T15:32:10;100782.16;;;9.37;100.00
10060;BME280;5069;49.306;8.636;2023-12-28T15:35:13;100778.69;;;9.35;100.00
10060;BME280;5069;49.306;8.636;2023-12-28T15:38:18;100776.81;;;9.40;100.00
10060;BME280;5069;49.306;8.636;2023-12-28T15:41:21;100775.91;;;9.43;100.00
10060;BME280;5069;49.306;8.636;2023-12-28T15:44:23;100768.03;;;9.41;100.00
10060;BME280;5069;49.306;8.636;2023-12-28T15:47:24;100775.03;;;9.42;100.00
10060;BME280;5069;49.306;8.636;2023-12-28T15:50:26;100775.75;;;9.49;100.00
10060;BME280;5069;49.306;8.636;2023-12-28T15:53:27;100782.03;;;9.43;100.00
10060;BME280;5069;49.306;8.636;2023-12-28T15:56:29;100780.22;;;9.45;100.00
10060;BME280;5069;49.306;8.636;2023-12-28T15:59:30;100775.75;;;9.49;100.00
10060;BME280;5069;49.306;8.636;2023-12-28T16:02:32;100778.44;;;9.46;100.00
10060;BME280;5069;49.306;8.636;2023-12-28T16:05:34;100781.16;;;9.43;100.00